Time;durP1;ratioP1;P1;durP2;ratioP2;P2;SDS_P1;SDS_P2;PMS_P1;PMS_P2;Temp;Humidity;BMP_temperature;BMP_pressure;BME280_temperature;BME280_humidity;BME280_pressure;Samples;Min_cycle;Max_cycle;Signal;HPM_P1;HPM_P2
2021/07/13 00:00:25;;;;;;;9.05;6.50;;;19.20;85.60;;;;;;4985051;28;20082;-77
2021/07/13 00:02:52;;;;;;;9.48;6.18;;;19.20;85.60;;;;;;4996983;28;20124;-77
2021/07/13 00:05:21;;;;;;;7.43;6.10;;;19.20;85.60;;;;;;5003348;28;20558;-77
2021/07/13 00:07:49;;;;;;;6.15;5.07;;;19.20;85.70;;;;;;4985798;28;20097;-76
2021/07/13 00:10:19;;;;;;;7.00;5.85;;;19.10;85.60;;;;;;4970604;28;20035;-77
2021/07/13 00:12:47;;;;;;;7.63;6.00;;;19.20;85.70;;;;;;4971056;28;20039;-76
2021/07/13 00:15:21;;;;;;;7.35;6.20;;;19.20;85.70;;;;;;4984999;28;20042;-77
2021/07/13 00:17:51;;;;;;;7.28;6.32;;;19.20;85.80;;;;;;4969178;28;20035;-76
2021/07/13 00:20:19;;;;;;;6.65;5.85;;;19.20;85.80;;;;;;4966560;28;20066;-76
2021/07/13 00:22:46;;;;;;;8.82;6.95;;;19.20;85.80;;;;;;4969573;28;20050;-76
2021/07/13 00:25:15;;;;;;;8.40;7.28;;;19.20;86.40;;;;;;4983283;28;20051;-76
2021/07/13 00:27:43;;;;;;;7.97;7.03;;;19.20;85.80;;;;;;4998323;28;20101;-76
2021/07/13 00:30:12;;;;;;;9.43;8.45;;;19.20;85.80;;;;;;4983966;28;20504;-77
2021/07/13 00:32:39;;;;;;;10.00;8.93;;;19.20;85.80;;;;;;4982592;28;20117;-76
2021/07/13 00:35:07;;;;;;;10.65;9.25;;;19.20;85.80;;;;;;4969795;28;20130;-77
2021/07/13 00:37:34;;;;;;;9.65;8.13;;;19.20;85.80;;;;;;4986173;28;20458;-77
2021/07/13 00:40:02;;;;;;;9.38;8.18;;;19.20;85.80;;;;;;4984657;28;20101;-77
2021/07/13 00:42:28;;;;;;;9.43;8.02;;;19.30;85.70;;;;;;4950144;28;20039;-77
2021/07/13 00:44:55;;;;;;;10.25;8.63;;;19.30;85.60;;;;;;4954880;28;20049;-77
2021/07/13 00:47:26;;;;;;;10.05;8.73;;;19.30;85.60;;;;;;4997474;28;20148;-77
2021/07/13 00:49:53;;;;;;;9.85;8.23;;;19.30;85.50;;;;;;4984081;28;20061;-77
2021/07/13 00:52:21;;;;;;;9.80;7.95;;;19.40;85.60;;;;;;4999552;28;20034;-77
2021/07/13 00:54:48;;;;;;;8.90;7.95;;;19.40;85.50;;;;;;4998886;28;20121;-77
2021/07/13 00:57:18;;;;;;;9.23;8.05;;;19.40;85.60;;;;;;4970745;28;20034;-77
2021/07/13 00:59:47;;;;;;;10.50;8.98;;;19.40;85.60;;;;;;4997607;28;20063;-76
2021/07/13 01:02:16;;;;;;;8.63;7.72;;;19.40;85.60;;;;;;4985254;28;20105;-76
2021/07/13 01:04:53;;;;;;;10.70;8.57;;;19.40;85.50;;;;;;4958840;28;20440;-76
2021/07/13 01:07:38;;;;;;;9.48;8.48;;;19.40;85.40;;;;;;4968816;28;20050;-76
2021/07/13 01:10:39;;;;;;;9.75;7.85;;;19.40;85.40;;;;;;4970487;28;20034;-76
2021/07/13 01:13:34;;;;;;;10.98;8.95;;;19.40;85.50;;;;;;4970431;28;20070;-76
2021/07/13 01:16:33;;;;;;;8.55;6.80;;;19.30;85.40;;;;;;4998155;28;20042;-76
2021/07/13 01:19:33;;;;;;;9.88;7.93;;;19.30;85.40;;;;;;4970788;28;20051;-76
2021/07/13 01:22:06;;;;;;;8.20;7.15;;;19.40;85.50;;;;;;5000483;28;20047;-76
2021/07/13 01:24:48;;;;;;;7.45;5.78;;;19.30;85.60;;;;;;4971055;28;20054;-76
2021/07/13 01:27:39;;;;;;;8.13;6.88;;;19.40;85.60;;;;;;5000217;28;20114;-76
2021/07/13 01:30:16;;;;;;;10.18;8.10;;;19.30;85.60;;;;;;4978872;28;20066;-76
2021/07/13 01:32:50;;;;;;;7.32;6.47;;;19.40;85.70;;;;;;4986365;28;20046;-76
2021/07/13 01:35:33;;;;;;;9.48;8.13;;;19.40;85.70;;;;;;4967882;28;21607;-77
2021/07/13 01:38:03;;;;;;;7.72;6.68;;;19.40;85.70;;;;;;4984815;28;20435;-76
2021/07/13 01:40:32;;;;;;;8.23;7.10;;;19.40;85.80;;;;;;4983560;28;20499;-76
2021/07/13 01:42:59;;;;;;;7.32;6.53;;;19.40;85.70;;;;;;4996778;28;20035;-76
2021/07/13 01:45:28;;;;;;;8.10;7.00;;;19.40;85.70;;;;;;4969254;28;20097;-77
2021/07/13 01:47:56;;;;;;;9.02;7.60;;;19.40;85.80;;;;;;4979872;28;20121;-76
2021/07/13 01:50:23;;;;;;;8.15;7.00;;;19.40;85.80;;;;;;4970412;28;20045;-76
2021/07/13 01:52:52;;;;;;;8.15;6.78;;;19.40;85.90;;;;;;4982921;28;20077;-76
2021/07/13 01:55:23;;;;;;;7.90;6.70;;;19.40;86.00;;;;;;4965395;28;20046;-77
2021/07/13 01:57:53;;;;;;;9.27;7.28;;;19.40;86.00;;;;;;4997156;28;20457;-75
2021/07/13 02:00:19;;;;;;;9.40;7.18;;;19.40;86.00;;;;;;4953226;28;20106;-76
2021/07/13 02:02:47;;;;;;;8.73;7.00;;;19.40;86.10;;;;;;4951409;28;20057;-76
2021/07/13 02:05:15;;;;;;;8.07;6.88;;;19.40;86.10;;;;;;4970286;28;20133;-76
2021/07/13 02:07:49;;;;;;;9.20;7.53;;;19.40;86.20;;;;;;4965151;28;20473;-76
2021/07/13 02:10:18;;;;;;;10.35;8.02;;;19.40;86.20;;;;;;4996009;28;20046;-76
2021/07/13 02:12:46;;;;;;;8.93;7.28;;;19.40;86.30;;;;;;4998896;28;20039;-76
2021/07/13 02:15:13;;;;;;;10.80;8.07;;;19.40;86.80;;;;;;4980305;28;20105;-76
2021/07/13 02:17:40;;;;;;;10.75;8.48;;;19.40;86.20;;;;;;4959361;28;20471;-76
2021/07/13 02:20:10;;;;;;;8.73;6.78;;;19.40;86.20;;;;;;4996907;28;20047;-76
2021/07/13 02:22:38;;;;;;;9.18;7.25;;;19.40;86.20;;;;;;4966370;28;20051;-76
2021/07/13 02:25:07;;;;;;;8.88;6.53;;;19.40;86.30;;;;;;4969462;28;20091;-76
2021/07/13 02:27:36;;;;;;;9.00;7.30;;;19.40;86.40;;;;;;5000490;28;20046;-76
2021/07/13 02:30:07;;;;;;;9.13;7.70;;;19.40;86.50;;;;;;4972889;28;20042;-76
2021/07/13 02:32:53;;;;;;;8.15;6.65;;;19.30;86.40;;;;;;4983525;28;20519;-76
2021/07/13 02:35:37;;;;;;;7.63;5.93;;;19.40;86.50;;;;;;5002163;28;20504;-76
2021/07/13 02:38:06;;;;;;;8.98;7.30;;;19.30;86.40;;;;;;4971126;28;20031;-76
2021/07/13 02:40:33;;;;;;;9.40;7.38;;;19.30;86.50;;;;;;4999963;28;20043;-77
2021/07/13 02:43:01;;;;;;;9.02;7.25;;;19.30;86.60;;;;;;4981640;28;20047;-76
2021/07/13 02:45:29;;;;;;;8.60;7.10;;;19.30;86.70;;;;;;4985989;28;20049;-76
2021/07/13 02:47:58;;;;;;;9.07;7.30;;;19.20;86.70;;;;;;4970432;28;20808;-76
2021/07/13 02:50:26;;;;;;;8.77;7.35;;;19.20;86.70;;;;;;4985645;28;20043;-76
2021/07/13 02:52:54;;;;;;;8.27;6.55;;;19.20;86.80;;;;;;4971230;28;20553;-76
2021/07/13 02:55:23;;;;;;;9.77;7.95;;;19.20;86.90;;;;;;4981525;28;20039;-76
2021/07/13 02:57:53;;;;;;;7.93;6.70;;;19.20;86.90;;;;;;4984564;28;20039;-76
2021/07/13 03:00:21;;;;;;;8.65;6.97;;;19.20;86.90;;;;;;4970976;28;20090;-76
2021/07/13 03:02:50;;;;;;;7.85;6.35;;;19.10;86.90;;;;;;4968529;28;20773;-76
2021/07/13 03:05:19;;;;;;;7.43;6.65;;;19.10;86.90;;;;;;5001102;28;20043;-76
2021/07/13 03:07:48;;;;;;;8.90;6.90;;;19.10;87.00;;;;;;4974104;28;20040;-76
2021/07/13 03:10:20;;;;;;;7.70;6.72;;;19.10;87.10;;;;;;4955860;28;20042;-76
2021/07/13 03:12:49;;;;;;;8.35;7.03;;;19.10;87.10;;;;;;4969695;28;20038;-76
2021/07/13 03:15:22;;;;;;;8.10;6.82;;;19.00;87.10;;;;;;4987311;28;20471;-76
2021/07/13 03:17:49;;;;;;;8.73;7.63;;;19.10;87.20;;;;;;4998289;28;20829;-76
2021/07/13 03:20:16;;;;;;;9.63;8.25;;;19.10;87.20;;;;;;4997564;28;20086;-76
2021/07/13 03:22:46;;;;;;;8.75;6.82;;;19.10;87.20;;;;;;4970694;28;20048;-76
2021/07/13 03:25:20;;;;;;;9.65;8.02;;;19.10;87.20;;;;;;4985634;28;20073;-76
2021/07/13 03:27:50;;;;;;;9.52;6.72;;;19.10;87.10;;;;;;4974872;28;20348;-76
2021/07/13 03:30:18;;;;;;;8.50;6.78;;;19.20;87.20;;;;;;4969964;28;20045;-77
2021/07/13 03:32:46;;;;;;;9.30;8.02;;;19.10;87.10;;;;;;4980331;28;20121;-76
2021/07/13 03:35:16;;;;;;;11.23;7.45;;;19.20;87.20;;;;;;4965917;28;20117;-76
2021/07/13 03:37:43;;;;;;;7.50;6.60;;;19.20;87.20;;;;;;4969805;28;20449;-76
2021/07/13 03:40:11;;;;;;;10.02;7.55;;;19.20;87.00;;;;;;4983118;28;20089;-76
2021/07/13 03:42:38;;;;;;;10.45;8.10;;;19.20;87.00;;;;;;4964759;28;20047;-76
2021/07/13 03:45:06;;;;;;;9.85;7.95;;;19.20;87.00;;;;;;5001059;28;20121;-76
2021/07/13 03:47:34;;;;;;;8.45;7.20;;;19.20;87.00;;;;;;5001614;28;20043;-76
2021/07/13 03:50:01;;;;;;;9.40;7.38;;;19.20;87.10;;;;;;4967965;28;20398;-77
2021/07/13 03:52:28;;;;;;;9.48;7.40;;;19.20;87.20;;;;;;4969682;28;20041;-76
2021/07/13 03:54:58;;;;;;;9.75;7.85;;;19.20;87.20;;;;;;4998691;28;20035;-76
2021/07/13 03:57:25;;;;;;;11.18;9.18;;;19.20;87.10;;;;;;4955509;28;20093;-76
2021/07/13 03:59:52;;;;;;;11.02;8.40;;;19.20;87.10;;;;;;4969316;28;20085;-76
2021/07/13 04:02:19;;;;;;;10.27;7.93;;;19.20;87.10;;;;;;4985789;28;20522;-76
2021/07/13 04:04:47;;;;;;;10.00;7.63;;;19.20;87.10;;;;;;4970885;28;20122;-76
2021/07/13 04:07:14;;;;;;;9.90;8.05;;;19.20;87.20;;;;;;4970854;28;20201;-76
2021/07/13 04:09:41;;;;;;;8.68;7.13;;;19.20;87.20;;;;;;4990293;28;20093;-76
2021/07/13 04:12:08;;;;;;;9.90;7.95;;;19.20;87.20;;;;;;4970291;28;20042;-76
2021/07/13 04:14:35;;;;;;;9.48;7.85;;;19.20;87.30;;;;;;4953823;28;20494;-76
2021/07/13 04:17:03;;;;;;;8.10;6.60;;;19.20;87.30;;;;;;4969534;28;20035;-76
2021/07/13 04:19:29;;;;;;;9.30;6.68;;;19.30;87.30;;;;;;4985203;28;20090;-76
2021/07/13 04:21:56;;;;;;;9.60;7.60;;;19.30;87.20;;;;;;4998755;28;20043;-76
2021/07/13 04:24:23;;;;;;;10.52;8.18;;;19.30;87.20;;;;;;4982565;28;20054;-76
2021/07/13 04:26:50;;;;;;;10.93;8.60;;;19.30;87.20;;;;;;4966484;28;20410;-76
2021/07/13 04:29:17;;;;;;;14.48;10.93;;;19.40;87.30;;;;;;4970404;28;20443;-76
2021/07/13 04:31:44;;;;;;;14.30;11.27;;;19.40;88.00;;;;;;4961843;28;20059;-76
2021/07/13 04:34:12;;;;;;;14.98;11.65;;;19.50;87.40;;;;;;4953206;28;20042;-76
2021/07/13 04:36:39;;;;;;;12.63;9.35;;;19.50;87.40;;;;;;4985016;28;20071;-76
2021/07/13 04:39:07;;;;;;;16.63;11.88;;;19.50;87.50;;;;;;4971303;28;20550;-76
2021/07/13 04:41:35;;;;;;;14.57;10.25;;;19.50;87.50;;;;;;4969183;28;20101;-76
2021/07/13 04:44:02;;;;;;;17.33;12.75;;;19.50;87.50;;;;;;4969920;28;20068;-77
2021/07/13 04:46:30;;;;;;;17.25;12.63;;;19.50;87.60;;;;;;4967130;28;20039;-76
2021/07/13 04:48:57;;;;;;;18.92;13.35;;;19.50;87.60;;;;;;4983427;28;20553;-76
2021/07/13 04:51:24;;;;;;;17.50;12.98;;;19.50;87.70;;;;;;4987336;28;20105;-76
2021/07/13 04:53:52;;;;;;;17.25;12.52;;;19.50;87.80;;;;;;4967841;28;20054;-76
2021/07/13 04:56:19;;;;;;;15.43;11.55;;;19.50;87.80;;;;;;4983839;28;20041;-76
2021/07/13 04:58:46;;;;;;;15.13;11.88;;;19.60;87.80;;;;;;4966962;28;20054;-76
2021/07/13 05:01:13;;;;;;;18.85;13.32;;;19.60;87.80;;;;;;4967117;28;20031;-76
2021/07/13 05:03:40;;;;;;;19.08;14.35;;;19.60;87.80;;;;;;4968291;28;20093;-76
2021/07/13 05:06:07;;;;;;;18.98;14.85;;;19.60;87.70;;;;;;4969289;28;20042;-76
2021/07/13 05:08:35;;;;;;;16.38;12.10;;;19.70;87.90;;;;;;4950013;28;20049;-76
2021/07/13 05:11:02;;;;;;;19.63;14.95;;;19.60;87.80;;;;;;4966317;28;20042;-76
2021/07/13 05:13:29;;;;;;;16.83;13.02;;;19.60;87.90;;;;;;4968634;28;20030;-76
2021/07/13 05:15:56;;;;;;;19.58;14.82;;;19.60;87.90;;;;;;4983676;28;20082;-76
2021/07/13 05:18:23;;;;;;;23.83;16.85;;;19.60;88.00;;;;;;4967944;28;20105;-76
2021/07/13 05:20:55;;;;;;;21.50;15.15;;;19.60;88.10;;;;;;4970006;28;20089;-76
2021/07/13 05:23:22;;;;;;;22.75;16.30;;;19.60;88.10;;;;;;4965583;28;20062;-76
2021/07/13 05:25:49;;;;;;;26.23;18.77;;;19.60;88.20;;;;;;4970784;28;20089;-76
2021/07/13 05:28:17;;;;;;;21.98;17.83;;;19.50;88.30;;;;;;4980937;28;20047;-76
2021/07/13 05:30:45;;;;;;;21.45;15.43;;;19.50;88.40;;;;;;4987561;28;20116;-76
2021/07/13 05:33:17;;;;;;;21.63;15.88;;;19.50;88.40;;;;;;4968607;28;20046;-76
2021/07/13 05:35:44;;;;;;;17.20;12.97;;;19.50;88.40;;;;;;4969457;28;20483;-76
2021/07/13 05:38:11;;;;;;;23.50;15.82;;;19.50;88.40;;;;;;4975099;28;20046;-76
2021/07/13 05:40:42;;;;;;;20.67;14.52;;;19.40;88.40;;;;;;4982698;28;20055;-76
2021/07/13 05:43:10;;;;;;;20.83;15.13;;;19.40;88.40;;;;;;4949739;28;20101;-77
2021/07/13 05:45:36;;;;;;;18.42;13.18;;;19.40;88.40;;;;;;4999759;28;20057;-76
2021/07/13 05:48:04;;;;;;;18.60;11.63;;;19.40;88.40;;;;;;4972167;28;20467;-76
2021/07/13 05:50:31;;;;;;;18.05;12.60;;;19.40;88.40;;;;;;4983293;28;20043;-76
2021/07/13 05:53:01;;;;;;;20.52;15.07;;;19.50;88.40;;;;;;4970944;28;20450;-76
2021/07/13 05:55:28;;;;;;;20.63;14.00;;;19.50;88.50;;;;;;4970505;28;20043;-76
2021/07/13 05:57:55;;;;;;;17.20;12.48;;;19.50;88.60;;;;;;4967456;28;20332;-76
2021/07/13 06:00:22;;;;;;;18.35;12.98;;;19.50;88.50;;;;;;4973406;28;20582;-76
2021/07/13 06:02:49;;;;;;;19.00;12.43;;;19.60;88.40;;;;;;4970339;28;20069;-76
2021/07/13 06:05:16;;;;;;;18.15;13.07;;;19.60;88.40;;;;;;4972398;28;20047;-76
2021/07/13 06:07:47;;;;;;;20.42;13.45;;;19.60;88.40;;;;;;4967051;28;20070;-78
2021/07/13 06:10:17;;;;;;;18.90;12.93;;;19.60;88.40;;;;;;4977790;28;20050;-75
2021/07/13 06:12:44;;;;;;;19.85;13.90;;;19.60;88.30;;;;;;4967433;28;20039;-76
2021/07/13 06:15:12;;;;;;;21.75;13.95;;;19.60;88.40;;;;;;4980190;28;20047;-76
2021/07/13 06:17:42;;;;;;;22.83;14.32;;;19.60;88.40;;;;;;4968608;28;20035;-76
2021/07/13 06:20:11;;;;;;;18.52;12.50;;;19.60;88.40;;;;;;4967412;28;20038;-76
2021/07/13 06:22:38;;;;;;;19.48;12.90;;;19.60;88.50;;;;;;4984259;28;20067;-76
2021/07/13 06:25:06;;;;;;;18.60;12.38;;;19.60;88.50;;;;;;4986492;28;20047;-76
2021/07/13 06:27:33;;;;;;;19.70;12.77;;;19.70;89.10;;;;;;4986825;28;20109;-77
2021/07/13 06:30:01;;;;;;;20.48;13.13;;;19.70;89.00;;;;;;4967462;28;20043;-77
2021/07/13 06:32:28;;;;;;;19.90;12.98;;;19.70;88.40;;;;;;4972102;28;20850;-77
2021/07/13 06:34:55;;;;;;;20.52;13.00;;;19.80;88.40;;;;;;4986372;28;20550;-76
2021/07/13 06:37:22;;;;;;;21.63;13.25;;;19.80;88.40;;;;;;4952400;28;20394;-77
2021/07/13 06:39:49;;;;;;;18.83;12.52;;;19.80;88.40;;;;;;4964314;28;20097;-76
2021/07/13 06:42:16;;;;;;;21.83;13.73;;;19.80;88.40;;;;;;4985031;28;20081;-74
2021/07/13 06:44:43;;;;;;;19.77;13.65;;;19.80;88.40;;;;;;4966620;28;20074;-75
2021/07/13 06:47:10;;;;;;;18.85;12.25;;;19.80;88.40;;;;;;4982193;28;20131;-76
2021/07/13 06:49:47;;;;;;;21.60;14.63;;;19.80;88.40;;;;;;4961370;28;20043;-76
2021/07/13 06:52:14;;;;;;;20.73;12.50;;;19.90;88.40;;;;;;4963778;28;20566;-77
2021/07/13 06:54:41;;;;;;;20.90;13.55;;;19.90;88.40;;;;;;4970710;28;20051;-79
2021/07/13 06:57:08;;;;;;;17.30;11.75;;;19.90;88.30;;;;;;4972210;28;20553;-79
2021/07/13 06:59:35;;;;;;;19.92;12.85;;;19.90;88.30;;;;;;4983024;28;20039;-79
2021/07/13 07:02:03;;;;;;;20.80;12.48;;;19.90;88.30;;;;;;4986494;28;20463;-78
2021/07/13 07:04:30;;;;;;;20.92;12.82;;;19.90;88.30;;;;;;4970376;28;20093;-79
2021/07/13 07:06:57;;;;;;;18.65;12.20;;;19.90;88.30;;;;;;4971000;28;20043;-79
2021/07/13 07:09:24;;;;;;;18.00;11.65;;;20.00;88.40;;;;;;4950172;28;20555;-79
2021/07/13 07:11:51;;;;;;;18.52;12.27;;;20.00;88.30;;;;;;4972920;28;20055;-76
2021/07/13 07:14:19;;;;;;;18.55;12.32;;;20.00;88.30;;;;;;4957490;28;20115;-76
2021/07/13 07:16:46;;;;;;;17.05;12.55;;;20.00;88.30;;;;;;4969395;28;20451;-77
2021/07/13 07:19:13;;;;;;;20.30;12.88;;;20.10;88.40;;;;;;4983539;28;20043;-76
2021/07/13 07:21:40;;;;;;;19.58;12.75;;;20.00;88.30;;;;;;4986369;28;20066;-76
2021/07/13 07:24:07;;;;;;;19.13;13.07;;;20.10;88.40;;;;;;4972207;28;20058;-75
2021/07/13 07:26:34;;;;;;;20.00;12.70;;;20.10;88.50;;;;;;4972237;28;20047;-77
2021/07/13 07:29:01;;;;;;;13.10;9.85;;;20.10;88.50;;;;;;4988055;28;20050;-77
2021/07/13 07:31:28;;;;;;;15.68;11.50;;;20.10;88.60;;;;;;4972315;28;20538;-77
2021/07/13 07:33:55;;;;;;;17.95;12.07;;;20.20;88.60;;;;;;4972987;28;20436;-77
2021/07/13 07:36:25;;;;;;;16.92;11.90;;;20.20;88.60;;;;;;4946382;28;20404;-79
2021/07/13 07:38:52;;;;;;;16.20;10.45;;;20.20;88.60;;;;;;4986005;28;20040;-78
2021/07/13 07:41:20;;;;;;;18.33;11.45;;;20.30;88.60;;;;;;4973300;28;20051;-78
2021/07/13 07:43:48;;;;;;;18.02;12.02;;;20.30;88.60;;;;;;4985613;28;20042;-77
2021/07/13 07:46:15;;;;;;;17.35;11.68;;;20.30;88.60;;;;;;4970142;28;20403;-77
2021/07/13 07:48:42;;;;;;;20.60;12.77;;;20.30;88.60;;;;;;4982584;28;20042;-78
2021/07/13 07:51:09;;;;;;;15.68;10.77;;;20.30;89.20;;;;;;5005029;28;20146;-79
2021/07/13 07:53:36;;;;;;;18.25;11.88;;;20.40;88.70;;;;;;4972786;28;20487;-78
2021/07/13 07:56:04;;;;;;;16.48;10.98;;;20.40;88.70;;;;;;4954646;28;20427;-79
2021/07/13 07:58:31;;;;;;;15.15;10.07;;;20.40;88.70;;;;;;4969693;28;20043;-79
2021/07/13 08:00:58;;;;;;;14.98;10.23;;;20.40;88.70;;;;;;4989244;28;20462;-78
2021/07/13 08:03:25;;;;;;;14.45;9.88;;;20.40;88.60;;;;;;4973728;28;20047;-78
2021/07/13 08:05:55;;;;;;;14.30;9.10;;;20.50;89.30;;;;;;5004405;28;20061;-77
2021/07/13 08:08:23;;;;;;;13.40;9.60;;;20.50;88.70;;;;;;4988789;28;20074;-77
2021/07/13 08:10:50;;;;;;;13.70;9.85;;;20.50;88.80;;;;;;4973920;28;20113;-78
2021/07/13 08:13:17;;;;;;;13.88;9.98;;;20.50;88.80;;;;;;4973177;28;20403;-76
2021/07/13 08:15:44;;;;;;;14.43;9.18;;;20.50;88.90;;;;;;4945502;28;20134;-78
2021/07/13 08:18:11;;;;;;;16.58;11.57;;;20.50;89.00;;;;;;4955081;28;20149;-83
2021/07/13 08:20:39;;;;;;;14.25;9.13;;;20.40;89.00;;;;;;4965565;28;20055;-83
2021/07/13 08:23:06;;;;;;;11.88;8.73;;;20.40;89.00;;;;;;4971795;28;20073;-85
2021/07/13 08:25:33;;;;;;;12.10;8.40;;;20.50;89.10;;;;;;4971085;28;20495;-83
2021/07/13 08:28:00;;;;;;;13.75;8.57;;;20.50;89.10;;;;;;4970323;28;20122;-85
2021/07/13 08:30:28;;;;;;;12.05;8.00;;;20.60;89.70;;;;;;4991818;28;20046;-85
2021/07/13 08:32:55;;;;;;;14.02;8.82;;;20.60;89.00;;;;;;4974560;28;20038;-83
2021/07/13 08:35:22;;;;;;;12.45;8.15;;;20.70;89.00;;;;;;4951606;28;20063;-82
2021/07/13 08:37:51;;;;;;;11.90;8.60;;;20.70;88.90;;;;;;4985953;28;20460;-80
2021/07/13 08:40:19;;;;;;;11.23;7.90;;;20.80;88.80;;;;;;4972136;28;20042;-82
2021/07/13 08:42:46;;;;;;;10.02;7.00;;;20.80;88.80;;;;;;4972955;28;20418;-82
2021/07/13 08:45:16;;;;;;;11.73;8.30;;;20.90;88.80;;;;;;5004744;28;20035;-78
2021/07/13 08:47:45;;;;;;;12.23;8.30;;;21.00;88.60;;;;;;4989027;28;20070;-78
2021/07/13 08:50:14;;;;;;;13.63;10.13;;;21.10;88.50;;;;;;4970277;28;20044;-79
2021/07/13 08:52:42;;;;;;;13.98;8.85;;;21.20;88.30;;;;;;4987576;28;20069;-76
2021/07/13 08:55:10;;;;;;;12.43;8.15;;;21.30;88.20;;;;;;4968230;28;20051;-76
2021/07/13 08:57:38;;;;;;;11.88;7.88;;;21.40;88.00;;;;;;5001474;28;20137;-76
2021/07/13 09:00:14;;;;;;;9.13;6.60;;;21.50;87.80;;;;;;4963055;28;20051;-76
2021/07/13 09:03:06;;;;;;;8.52;6.55;;;21.60;87.70;;;;;;4964697;28;20411;-76
2021/07/13 09:05:48;;;;;;;10.88;7.82;;;21.60;87.60;;;;;;4978541;28;20046;-76
2021/07/13 09:08:22;;;;;;;9.45;6.65;;;21.60;87.70;;;;;;4973811;28;20515;-76
2021/07/13 09:11:12;;;;;;;10.20;7.28;;;21.70;87.60;;;;;;4961626;28;20488;-75
2021/07/13 09:13:41;;;;;;;10.13;6.38;;;21.90;87.20;;;;;;5000289;28;20047;-76
2021/07/13 09:16:12;;;;;;;9.90;6.90;;;22.10;87.10;;;;;;4982535;28;20380;-76
2021/07/13 09:18:42;;;;;;;11.90;7.25;;;22.20;86.90;;;;;;4985232;28;20047;-77
2021/07/13 09:21:33;;;;;;;9.77;6.53;;;22.30;86.50;;;;;;4992524;28;20564;-77
2021/07/13 09:24:14;;;;;;;9.73;6.80;;;22.40;86.40;;;;;;4992610;28;20056;-77
2021/07/13 09:26:51;;;;;;;9.95;7.10;;;22.50;86.20;;;;;;4970708;28;20051;-78
2021/07/13 09:29:34;;;;;;;9.07;6.22;;;22.60;86.00;;;;;;4969752;28;20124;-76
2021/07/13 09:32:16;;;;;;;9.95;7.50;;;22.60;86.00;;;;;;4967143;28;20038;-76
2021/07/13 09:35:19;;;;;;;7.97;5.88;;;22.60;85.90;;;;;;4963947;28;20074;-76
2021/07/13 09:37:49;;;;;;;9.73;7.10;;;22.60;85.90;;;;;;4954268;28;20058;-77
2021/07/13 09:40:18;;;;;;;10.48;7.55;;;22.60;86.00;;;;;;4969240;28;20422;-76
2021/07/13 09:42:50;;;;;;;12.43;9.48;;;22.70;85.90;;;;;;4967695;28;20066;-77
2021/07/13 09:45:20;;;;;;;;;;;22.60;85.90;;;;;;4984358;28;20042;-77
2021/07/13 09:47:58;;;;;;;11.60;8.85;;;22.60;86.10;;;;;;4968888;28;20337;-76
2021/07/13 09:50:42;;;;;;;10.90;7.70;;;22.50;86.10;;;;;;4944028;28;20521;-76
2021/07/13 09:53:17;;;;;;;10.45;8.18;;;22.50;86.10;;;;;;4968666;28;20102;-77
2021/07/13 09:55:45;;;;;;;10.93;8.32;;;22.50;86.10;;;;;;4967882;28;20502;-76
2021/07/13 09:58:18;;;;;;;9.20;7.07;;;22.40;86.20;;;;;;4984436;28;20065;-77
2021/07/13 10:00:59;;;;;;;8.60;7.28;;;22.50;86.30;;;;;;4984414;28;20084;-77
2021/07/13 10:03:29;;;;;;;9.65;7.47;;;22.70;86.10;;;;;;4980770;28;20061;-78
2021/07/13 10:05:58;;;;;;;8.77;6.40;;;22.70;85.90;;;;;;4960322;28;20040;-78
2021/07/13 10:08:26;;;;;;;9.98;6.97;;;22.80;85.60;;;;;;4967607;28;20514;-78
2021/07/13 10:10:56;;;;;;;9.50;7.28;;;22.80;85.50;;;;;;4947769;28;20087;-77
2021/07/13 10:13:23;;;;;;;8.52;6.72;;;22.80;85.50;;;;;;4970455;28;20054;-76
2021/07/13 10:15:51;;;;;;;11.70;8.13;;;22.90;85.50;;;;;;4964430;28;20073;-77
2021/07/13 10:18:22;;;;;;;10.88;8.23;;;23.00;85.30;;;;;;4969350;28;20041;-76
2021/07/13 10:20:51;;;;;;;10.70;7.32;;;22.90;85.20;;;;;;4968607;28;20098;-76
2021/07/13 10:23:19;;;;;;;7.93;6.32;;;22.90;85.30;;;;;;4982851;28;20051;-75
2021/07/13 10:25:46;;;;;;;9.27;6.68;;;22.90;85.50;;;;;;4982917;28;20153;-76
2021/07/13 10:28:19;;;;;;;7.70;5.72;;;22.90;85.40;;;;;;4983189;28;20050;-78
2021/07/13 10:30:49;;;;;;;10.90;7.20;;;22.90;85.30;;;;;;4969191;28;20105;-77
2021/07/13 10:33:29;;;;;;;7.60;6.35;;;22.80;85.40;;;;;;4959653;28;20382;-76
2021/07/13 10:36:28;;;;;;;8.63;6.43;;;22.80;85.40;;;;;;4968452;28;20046;-76
2021/07/13 10:39:24;;;;;;;8.98;6.72;;;22.80;85.40;;;;;;4963597;28;20043;-77
2021/07/13 10:41:52;;;;;;;10.15;7.43;;;22.80;85.40;;;;;;4961391;28;20098;-76
2021/07/13 10:44:44;;;;;;;10.48;7.90;;;22.70;85.50;;;;;;4968404;28;20118;-76
2021/07/13 10:47:26;;;;;;;10.38;7.88;;;22.60;85.30;;;;;;4964884;28;20164;-76
2021/07/13 10:50:18;;;;;;;11.45;7.97;;;22.60;85.50;;;;;;4967988;28;20522;-76
2021/07/13 10:52:52;;;;;;;10.27;6.90;;;22.60;85.50;;;;;;5001691;28;20042;-76
2021/07/13 10:55:32;;;;;;;10.57;7.65;;;22.60;85.60;;;;;;4961595;28;20054;-77
2021/07/13 10:58:11;;;;;;;9.27;6.57;;;22.60;85.40;;;;;;4972100;28;20558;-77
2021/07/13 11:00:47;;;;;;;9.88;7.75;;;22.70;85.30;;;;;;4963675;28;20547;-77
2021/07/13 11:03:27;;;;;;;9.65;7.78;;;22.80;85.10;;;;;;4983597;28;20042;-77
2021/07/13 11:05:58;;;;;;;10.05;7.10;;;22.80;85.00;;;;;;4971432;28;20404;-78
2021/07/13 11:08:40;;;;;;;8.80;6.50;;;22.80;85.00;;;;;;4973037;28;20403;-85
2021/07/13 11:11:27;;;;;;;;;;;22.90;84.80;;;;;;4985727;28;20043;-77
2021/07/13 11:13:57;;;;;;;10.95;9.27;;;22.90;84.90;;;;;;4967333;28;19933;-76
2021/07/13 11:16:35;;;;;;;9.70;7.47;;;22.90;84.70;;;;;;4962355;28;20043;-76
2021/07/13 11:19:05;;;;;;;9.68;7.30;;;22.90;84.70;;;;;;4971742;28;20053;-77
2021/07/13 11:21:37;;;;;;;10.23;7.43;;;22.90;84.70;;;;;;4969377;28;20140;-76
2021/07/13 11:24:05;;;;;;;9.38;7.03;;;22.90;84.70;;;;;;4971590;28;20055;-78
2021/07/13 11:26:43;;;;;;;9.70;7.07;;;22.80;84.80;;;;;;5003005;28;20515;-76
2021/07/13 11:29:19;;;;;;;11.38;8.07;;;22.80;84.80;;;;;;4972305;28;20049;-77
2021/07/13 11:31:48;;;;;;;10.82;7.45;;;22.80;84.90;;;;;;4960399;28;20097;-77
2021/07/13 11:34:18;;;;;;;9.30;7.43;;;22.90;85.50;;;;;;4981504;28;20074;-77
2021/07/13 11:36:55;;;;;;;16.80;10.48;;;22.90;84.70;;;;;;4954520;28;20529;-77
2021/07/13 11:39:47;;;;;;;12.95;10.48;;;22.90;84.50;;;;;;4982149;28;20411;-76
2021/07/13 11:42:14;;;;;;;11.00;8.20;;;23.00;84.30;;;;;;4985353;28;20039;-77
2021/07/13 11:44:44;;;;;;;11.93;9.30;;;23.00;84.40;;;;;;4966826;28;20042;-77
2021/07/13 11:47:16;;;;;;;12.43;10.35;;;23.10;84.10;;;;;;4951954;28;20486;-77
2021/07/13 11:49:43;;;;;;;12.35;10.10;;;23.20;83.90;;;;;;4982550;28;20484;-77
2021/07/13 11:52:15;;;;;;;13.65;9.60;;;23.20;83.80;;;;;;4969784;28;20105;-76
2021/07/13 11:54:48;;;;;;;11.90;9.70;;;23.30;83.60;;;;;;5001941;28;20542;-77
2021/07/13 11:57:18;;;;;;;16.33;12.38;;;23.30;83.50;;;;;;4983735;28;20047;-77
2021/07/13 11:59:46;;;;;;;13.65;10.65;;;23.20;83.50;;;;;;4968732;28;20035;-77
2021/07/13 12:02:13;;;;;;;14.48;11.63;;;23.20;84.30;;;;;;4966070;28;20070;-77
2021/07/13 12:04:44;;;;;;;13.38;10.65;;;23.20;83.60;;;;;;4985497;28;20640;-77
2021/07/13 12:07:11;;;;;;;14.43;11.50;;;23.30;83.60;;;;;;4985894;28;20113;-76
2021/07/13 12:09:39;;;;;;;14.43;11.73;;;23.30;83.50;;;;;;4952607;28;20106;-76
2021/07/13 12:12:14;;;;;;;13.57;10.93;;;23.30;83.20;;;;;;5000003;28;20476;-75
2021/07/13 12:14:47;;;;;;;15.13;11.73;;;23.30;83.20;;;;;;4971042;28;20046;-77
2021/07/13 12:17:16;;;;;;;13.60;10.65;;;23.40;83.20;;;;;;4972887;28;20074;-76
2021/07/13 12:19:43;;;;;;;11.00;9.25;;;23.40;83.20;;;;;;4969661;28;20559;-75
2021/07/13 12:22:13;;;;;;;13.13;10.65;;;23.40;83.10;;;;;;4957154;28;20039;-75
2021/07/13 12:24:47;;;;;;;13.68;10.80;;;23.50;82.90;;;;;;4987121;28;20109;-76
2021/07/13 12:27:18;;;;;;;14.55;10.93;;;23.40;82.70;;;;;;4967763;28;20042;-76
2021/07/13 12:29:59;;;;;;;13.02;11.30;;;23.50;82.70;;;;;;4986730;28;20042;-76
2021/07/13 12:32:33;;;;;;;12.60;9.90;;;23.50;83.30;;;;;;4969252;28;20105;-77
2021/07/13 12:35:09;;;;;;;12.00;10.18;;;23.40;82.70;;;;;;4985055;28;20030;-76
2021/07/13 12:37:36;;;;;;;12.88;10.40;;;23.30;82.70;;;;;;4973481;28;20483;-76
2021/07/13 12:40:09;;;;;;;14.95;10.65;;;23.30;82.90;;;;;;4970235;28;20054;-77
2021/07/13 12:42:46;;;;;;;11.75;9.90;;;23.20;82.70;;;;;;4971152;28;20047;-77
2021/07/13 12:45:24;;;;;;;11.48;9.32;;;23.20;82.90;;;;;;4967026;28;20035;-76
2021/07/13 12:47:54;;;;;;;15.27;12.57;;;23.20;83.00;;;;;;4966470;28;20047;-80
2021/07/13 12:50:31;;;;;;;13.82;11.15;;;23.10;83.20;;;;;;4972773;28;20039;-77
2021/07/13 12:53:06;;;;;;;13.05;10.73;;;23.10;83.30;;;;;;4983886;28;20039;-77
2021/07/13 12:55:45;;;;;;;14.02;10.80;;;23.00;83.30;;;;;;4981320;28;20038;-78